• Join FlightAware (Why Join?)
  • Login
  • US Flag 
04:13PM EST


 

Airport Tracker/Info


-or-


 

Live Flight TrackerFlight Track Log ✈ SWR971 ✈ 24-Apr-2013 ✈ EDDT / TXL - LSZH / ZRH

Flight Track Log - Related Links

Times and Time Zones

All times are in EDT time to prevent confusion due to time zone crossing. See the SWR971 flight status page for this flight to view local times or setup timezone preferences in your user account.

Time Position Orientation Groundspeed Altitude Reporting Facility
EDT Latitude Longitude Course Direction KTS MPH feet Rate Location/Type
01:23PM 51.4660 12.1660 213° Southwest  Level Estimated
01:24PM 51.3744 12.0750 212° Southwest  Level Estimated
01:25PM 51.2827 11.9843 212° Southwest  Level Estimated
01:26PM 51.1910 11.8940 212° Southwest  Level Estimated
01:27PM 51.0992 11.8041 212° Southwest  Level Estimated
01:28PM 51.0073 11.7144 212° Southwest  Level Estimated
01:29PM 50.9153 11.6252 211° Southwest  Level Estimated
01:30PM 50.8233 11.5363 211° Southwest  Level Estimated
01:31PM 50.7312 11.4478 211° Southwest  Level Estimated
01:32PM 50.6390 11.3596 211° Southwest  Level Estimated
01:33PM 50.5468 11.2717 211° Southwest  Level Estimated
01:34PM 50.4545 11.1842 211° Southwest  Level Estimated
01:35PM 50.3621 11.0971 211° Southwest  Level Estimated
01:36PM 50.2697 11.0103 211° Southwest  Level Estimated
01:37PM 50.1772 10.9238 211° Southwest  Level Estimated
01:38PM 50.0847 10.8376 211° Southwest  Level Estimated
01:39PM 49.9921 10.7518 211° Southwest  Level Estimated
01:40PM 49.8994 10.6663 211° Southwest  Level Estimated
01:41PM 49.8067 10.5812 211° Southwest  Level Estimated
01:42PM 49.7139 10.4963 211° Southwest  Level Estimated
01:43PM 49.6210 10.4118 211° Southwest  Level Estimated
01:44PM 49.5281 10.3276 210° Southwest  Level Estimated
01:45PM 49.4351 10.2437 210° Southwest  Level Estimated
01:46PM 49.3420 10.1602 210° Southwest  Level Estimated
01:47PM 49.2489 10.0770 210° Southwest  Level Estimated
01:48PM 49.1558 9.9940 210° Southwest  Level Estimated
01:49PM 49.0625 9.9114 210° Southwest  Level Estimated
01:50PM 48.9693 9.8291 210° Southwest  Level Estimated
01:51PM 48.8759 9.7471 210° Southwest  Level Estimated
01:52PM 48.7825 9.6654 210° Southwest  Level Estimated
01:53PM 48.6891 9.5840 210° Southwest  Level Estimated
01:54PM 48.5882 9.4966 210° Southwest  Level Estimated
01:55PM 48.4873 9.4095 210° Southwest  Level Estimated
01:56PM 48.3863 9.3228 210° Southwest  Level Estimated
01:57PM 48.2853 9.2364 210° Southwest  Level Estimated
01:58PM 48.1842 9.1503 210° Southwest  Level Estimated
01:59PM 48.0830 9.0646 210° Southwest  Level Estimated
02:00PM 47.9817 8.9792 209° Southwest  Level Estimated
02:01PM 47.8804 8.8942 209° Southwest  Level Estimated
02:02PM 47.7810 8.8111 209° Southwest  Level Estimated
02:03PM 47.6815 8.7283 209° Southwest  Level Estimated
02:04PM 47.5820 8.6459 209° Southwest  Level Estimated
02:05PM 47.4824 8.5637 209° Southwest  Level Estimated
02:06PM 47.4647 8.5492 209° Southwest  Level Estimated
02:07PM 47.4647 8.5492 315° West  Level Estimated
02:08PM 47.4647 8.5492 315° West  Level Estimated
02:09PM 47.4647 8.5492 315° West  Level Estimated
02:10PM 47.4647 8.5492 315° West  Level Estimated
02:11PM 47.4647 8.5492 315° West  Level Estimated
02:12PM 47.4647 8.5492 315° West  Level Estimated
02:13PM 47.4647 8.5492 315° West  Level Estimated
02:14PM 47.4647 8.5492 315° West  Level Estimated
02:15PM 47.4647 8.5492 315° West  Level Estimated
02:16PM 47.4647 8.5492 315° West  Level Estimated
02:17PM 47.4647 8.5492 315° West  Level Estimated